Durango, CO (81301)

4:02 AM MDT on September 30, 2016 (GMT -0600)
Edgemont Ranch | | Change Station

Elev 7441 ft 37.31 °N, 107.80 °W | Updated 2 minutes ago

Overcast
Overcast
47.5 °F
Feels Like 48 °F
N
0.0
Wind Variable Wind from WSW
Gusts 0.0 mph

Today
High -- | Low -- °F
--% Chance of Precip.
Yesterday
High -- | Low -- °F
Precip. -- in
Pressure 30.25 in
Visibility 10.0 miles
Clouds Overcast 7000 ft
Windchill 48 °F
Dew Point 47 °F
Humidity 97%
Rainfall 0.00 in
Snow Depth Not available.
7:06 AM 6:55 PM
Waning Crescent, 0% visible
METAR KDRO 300953Z AUTO 03004KT 10SM OVC070 11/09 A3038 RMK AO2 SLP241 T01110094
Pressure 30.25 in
Visibility 10.0 miles
Clouds Overcast 7000 ft
Windchill 48 °F
Dew Point 47 °F
Humidity 97%
Rainfall 0.00 in
Snow Depth Not available.
7:06 AM 6:55 PM
Waning Crescent, 0% visible
METAR KDRO 300953Z AUTO 03004KT 10SM OVC070 11/09 A3038 RMK AO2 SLP241 T01110094

10-Day Weather Forecast

Almanac

Astronomy

Sep. 30, 2016 Rise Set
Actual Time
Civil Twilight
Nautical Twilight
Astronomical Twilight
Moon
Length of Visible Light
Length of Day
Tomorrow will be .
, % of the Moon is Illuminated

Today's Extremes

State Highs State Lows

Community

WunderPhotos

Upload Photos

1,942,687 photos uploaded!

WunderBlog® & News

Nearby

Air Quality

  Air Quality AQ Index Pollutant
Not available.

Snow Depth

Station Depth Elevation

Earthquake Activity

City Distance Mag. Time & Date
Minimum magnitude displayed is 2.5.

Coastal Water Temperatures

Place Temperature

Stations

Nearby Weather Stations

Station Location Temp. Windchill Dew Point Humidity Wind Precip. Elev Updated Type
                   

Watches & Warnings

There are currently no watches in effect.